x

Cape Elizabeth- 45nm Nw Of Aberdeen, Wa (46041) Wave Buoy

11:50 - Sat 27th Aug 2016 All times are PDT. -7 hours from GMT.

  • Sig Wave height 7.5ft
  • Swell Direction
  • Peak Period 8s
  • Average Period 7s
  • Wind
    7mph, 9mph gusts
  • Sea Temp 57°f
  • Air Temp 59°f
  • Sea Pressure 1013.5mb
  • Cape Elizabeth- 45nm Nw Of Aberdeen, Wa
  • Cape Elizabeth- 45nm Nw Of Aberdeen, Wa

More Historic Weather Station data

Upgrade to MSW Pro to gain access to the past 30 days of data for over 8000 Wavebouys and Weather Stations around the globe.

Join Pro

Comparision Forecast

View Surf forecast
   
sam. 08/27 11:50 7.5ft 8s 7s 7 9 mph 1013.5mb 57f 59f
10:50 8ft 9s 7s 7 9 mph 1013.1mb 57f 58f
9:50 8.5ft 9s 7s 9 11 mph 1012.8mb 57f 58f
8:50 8ft 9s 7s 9 11 mph 1012.5mb 57f 57f
7:50 8.5ft 9s 7s 9 11 mph 1012.3mb 57f 57f
6:50 7ft 9s 7s 11 13 mph 1011.9mb 57f 57f
5:50 6ft 9s 7s 11 16 mph 1011.6mb 58f 57f
4:50 5ft 8s 6s 11 16 mph 1011.4mb 58f 57f
3:50 4.5ft 8s 6s 16 20 mph 1011.2mb 58f 57f
2:50 4.5ft 9s 7s 11 13 mph 1010.8mb 58f 59f
1:50 4.5ft 8s 6s 7 9 mph 1010.6mb 58f 58f
12:50 4.5ft 8s 7s 9 11 mph 1010.6mb 57f 58f
ven. 08/26 11:50 4.5ft 8s 7s 11 13 mph 1010.4mb 58f 58f
10:50 5ft 8s 7s 9 11 mph 1010.7mb 58f 59f
9:50 5ft 9s 7s 9
mph
1010.9mb 59f 59f
8:50 5.5ft 9s 7s 7 9 mph 1010.7mb 58f 59f
7:50 4.5ft 9s 7s 9
mph
1010.5mb 59f 60f
6:50 5ft 9s 7s 9 11 mph 1011mb 60f 61f
5:50 5ft 9s 7s 4 7 mph 1011.3mb 61f 62f
4:50 5ft 9s 7s 4
mph
1011.9mb 60f 62f
3:50 4.5ft 9s 7s 7 9 mph 1012.3mb 59f 61f
2:50 5ft 9s 7s 7 9 mph 1012.9mb 60f 61f
1:50 5ft 9s 7s 7 9 mph 1013.1mb 59f 60f
12:50 5ft 9s 7s 4
mph
1013.3mb 58f 61f
11:50 5.5ft 9s 7s 4
mph
1013.3mb 58f 59f
10:50 6ft 9s 7s 4
mph
1013.1mb 57f 58f
9:50 6ft 8s 7s 4
mph
1013.5mb 57f 57f
8:50 6ft 9s 7s 4 7 mph 1013.5mb 56f 58f
7:50 5.5ft 9s 7s 7
mph
1013.4mb 56f 57f
6:50 6ft 9s 7s 7 9 mph 1013.4mb 56f 57f
5:50 6ft 10s 7s 7 9 mph 1013.3mb 57f 57f
4:50 6ft 9s 7s 9
mph
1013.5mb 57f 57f
3:50 5.5ft 10s 7s 9 11 mph 1013.7mb 56f 57f
2:50 5.5ft 8s 7s 4 7 mph 1014.2mb 56f 57f
1:50 5.5ft 9s 6s 13 16 mph 1014.1mb 56f 58f
12:50 5.5ft 10s 6s 11 16 mph 1014.4mb 57f 58f
jeu. 08/25 11:50 5ft 10s 6s 9 11 mph 1014.4mb 57f 59f
10:50 6ft 9s 6s 16 18 mph 1014.3mb 57f 59f
9:50 6ft 10s 6s 18 20 mph 1014.7mb 57f 60f
8:50 6ft 8s 7s 16 18 mph 1014.7mb 58f 60f
7:50 6ft 9s 7s 13 16 mph 1014.8mb 59f 60f
6:50 5.5ft 8s 7s 9 11 mph 1015.3mb 59f 61f
5:50 5.5ft 9s 8s 7 9 mph 1015.6mb 60f 62f
4:50 5ft 9s 7s 7 9 mph 1016.3mb 61f 62f
3:50 5ft 9s 7s 4 7 mph 1016.9mb 61f 63f
2:50 4ft 9s 7s 7
mph
1017.7mb 62f 63f
1:50 4.5ft 10s 7s 7 9 mph 1018.2mb 61f 63f
12:50 5ft 10s 7s 2 4 mph 1018.5mb 60f 62f
11:50 4ft 10s 7s 4
mph
1019mb 59f 61f
10:50 4.5ft 9s 6s 4
mph
1019.5mb 58f 60f
9:50 4.5ft 10s 7s 4
mph
1019.7mb 58f 58f
8:50 4.5ft 10s 6s 2
mph
1019.7mb 57f 59f
7:50 4.5ft 7s 6s 4 7 mph 1019.5mb 58f 58f
6:50 4.5ft 11s 6s 2
mph
1019.5mb 58f 57f
5:50 4ft 11s 6s 7 9 mph 1019.6mb 58f 57f
4:50 4ft 7s 6s 7 9 mph 1019.5mb 58f 57f
3:50 4ft 7s 7s 7
mph
1019.6mb 58f 58f
2:50 3.5ft 8s 6s 7 9 mph 1019.8mb 58f 58f
1:50 3.5ft 7s 6s 7 9 mph 1020mb 58f 58f
12:50 3.5ft 8s 5s 7
mph
1020.1mb 58f 60f
mer. 08/24 11:50 4ft 8s 5s 9 11 mph 1020.2mb 58f 60f
10:50 4.5ft 7s 5s 11
mph
1020.3mb 58f 61f
9:50 4.5ft 7s 5s 9 11 mph 1020.3mb 58f 60f
7:50 4ft 7s 5s 20 22 mph 1019.5mb 58f 63f
6:50 4ft 7s 6s 13 16 mph 1020mb 60f 62f
5:50 4ft 8s 6s 7 11 mph 1020.5mb 60f 64f
4:50 3.5ft 7s 6s 4 7 mph 1021.1mb 60f 61f
3:50 3.5ft 7s 6s 7 9 mph 1021.4mb 60f 60f
2:50 3.5ft 7s 6s 4 7 mph 1022.1mb 60f 60f
1:50 3.5ft 7s 6s 7 9 mph 1022.7mb 60f 59f
12:50 3.5ft 7s 6s 4
mph
1023mb 60f 60f
11:50 3.5ft 7s 6s 2 4 mph 1023.5mb 58f 58f
10:50 3.5ft 7s 6s 2
mph
1023.6mb 57f 57f
9:50 4ft 7s  -  2
mph
1023.4mb 57f 57f
8:50 4ft 7s 6s 4 7 mph 1023.3mb 56f 57f
7:50 3.5ft 6s 6s 7 9 mph 1023.1mb 56f 57f
6:50 3.5ft 6s 5s 7
mph
1022.8mb 57f 56f
5:50 3.5ft 6s 5s 4 7 mph 1022.5mb 57f 57f
4:50 3.5ft 7s 5s 7 9 mph 1022.3mb 57f 57f
3:50 3.5ft 6s 5s 9 11 mph 1022.3mb 57f 57f
2:50 3ft 7s 5s 9 11 mph 1022.2mb 57f 57f
1:50 3ft 7s 5s 9 11 mph 1022.3mb 57f 57f
12:50 3.5ft 15s 5s 9 13 mph 1022.5mb 56f 57f
mar. 08/23 11:50 3.5ft 7s 5s 11 13 mph 1022.6mb 56f 57f
10:50 3.5ft 15s 5s 11 16 mph 1022.6mb 57f 57f
9:50 3.5ft 7s 5s 9 11 mph 1022.8mb 57f 58f
8:50 3.5ft 7s 5s 9 11 mph 1022.5mb 57f 58f